Terminal Aerodrome Forecast
Issued by NWS Twin Cities, MN

Home | Current Version | Previous Version | Graphics & Text | Print | Product List | Glossary On
Versions: 1 2 3 4 5 6 7 8 9 10 11 12 13 14 15 16 17 18 19 20 21 22 23 24
000
FTUS43 KMPX 291500 AAA
TAFMSP
TAF AMD
KMSP 291502Z 2915/3018 30006KT P6SM SKC
     FM291900 31011KT P6SM SCT060
     FM300100 30004KT P6SM SKC
     FM301400 30008KT P6SM FEW050=

USA.gov is the U.S. government's official web portal to all federal, state and local government web resources and services.